Timeline UpdatesTrip UpdatesNews PostsPvt Posts♥♥Travel TipsAdmin PostsConv PostsFollowed PostsChat RequestsBlog PostsPNR Posts

Disclaimer
Search
 
 
Fri Nov 28, 2014 01:02:26 ISTHomeTrainsΣChainsAtlasPNRForumGalleryNewsFAQTripsMembersLoginFeedback
No Recent News for this Train
Other Trains in the News **new
Latest...
.
Mon Nov 03, 2014 (08:24PM)
⇐ Return Journey: Train# 16336

16335/Gandhidham Nagercoil Weekly Express

Time-Table HAS CHANGED.
Nov 03 (8:24PM)
Change Departure Station:
Change Arrival Station:
Post a Train Travel TipPost a Train Travel Tip **new
Post a Comment/Question/Picture/VideoPost a Comment/Question/Picture/Video
Pantry/Catering
✓ Pantry Car Avbl
✓ Catering Avbl
RSA - Rake Sharing
06309/06310/16335/16336 has RSA.
Rake/Coach Composition
LOCO-SLR-GEN-GEN-B1-B2-A1-S12-S11-S10-S9-S8-S7-PC-S6-S5-S4-S3-S2-S1-GEN-LD-SLR; As seen at Ahmedabad on 22 Apr
Loco
ERS WDM3A from GIMB to SRR and WAP4 RPM/ED from SRR...
Read more...
to NCJ
News    PNR    Forum    Time-Table    Availability    Fare Chart    Map    Arr/Dep History    Trips    Gallery    ΣChains    X/O    Timeline    
Travel Time: 1h 30m    0 halts    Distance: 71 km    Avg Speed: 47 km/hr
Type: Mail/Express
Zone: SR/Southern
Departs @ 02:45 (Avg 21m late)
Platform# 3
S      
Trivandrum Central/TVC 
Arrives @ 04:15 (Avg 18m late)
Platform# 23
S      
Nagercoil Junction/NCJ 

0 halts. 12 intermediate Stations between Trivandrum Central and Nagercoil Junction

Show ALL intermediate Stations  Show Old Time-Table

#TrkCodeStation NameX/OArrivesAvgDepartsAvgHaltPFDay#KmSpeedElevZoneAddress
1|==|GIMBGandhidham Junction (3)  -05:30+031-2273.57312mWRGandhidham, Gujarat
2|==|BCOBBhachau (3)  06:01+1406:03+132m21-2235.73544mWRBhachau, Gujarat
3|==|SIOBSamakhiali Junction (3)  06:30+506:32+72m21-2219.76242mWRSamakhiali, Gujarat
4!==!MALBMaliya Miyana Junction (2)  07:10+807:12+92m--1-2180.5726mWRMalia, Gujarat
5!==!DHGDhrangadhra Junction (3)  08:16+2308:18+272m--1-2103.64254mWRDhrangadhra, Gujarat
6!==!VGViramgam Junction (5)  09:52 09:50+609:54 09:52+62m21-2039.05429mWRViramgam, Gujarat
7/==/ADIAhmedabad Junction (12)  11:05+911:25+220m51-1973.56551mWRAhmedabad, Gujarat
8/==/NDNadiad Junction (4)X  12:07+1712:09+172m11-1928.06237mWRNadiad, Gujarat
9/==/ANNDAnand Junction (6)X  12:27+1812:29+182m11-1909.55044mWRAnand, Gujarat
10/==/BRCVadodara Junction (7)X  13:10 13:12+1013:12 13:22+102 10m11-1873.78336mWRVadodara 390005, Gujarat
11/==/AKVAnkleshwar Junction (4)X  14:20+2814:22+282m21-1793.94119mWRAnkleshwar, Gujarat
12/==/STSurat (4)X  15:33 15:35+615:35 15:45+102 10m21-1743.96819mWRSurat 395001, Gujarat
13/==/BLValsad (3)X  16:46+016:48+92m31-1675.26615mWRValsad, Gujarat
14/==/VAPIVapi (3)X  17:12+1117:14+112m--1-1649.04227mWRVapi, Gujarat
15/==/BORBoisar (3)X  18:57 18:55-418:59 18:57+12m--1-1578.83317mWRBoisar Tel.no-02525-266626, Maharashtra
16/==/BSRVasai Road (7)  20:25 20:30+020:30 20:40+95 10m71-1527.9637mWRVasai 401202, Maharashtra
17/==/BIRDBhiwandi Road (4)  21:06+1421:08+142m11-1500.64326mCRBhiwandi, Maharashtra
18|--|PNVLPanvel Junction (7)  22:00+2322:05+315m71-1463.55810mCRPanvel, Maharashtra
19|--|CHIChiplun (2)X  01:56 01:36+5301:58 01:38+1:002m22-1259.86312mKRChiplun, Maharashtra
20|--|RNRatnagiri (3)  03:35 02:50+1:0103:40 02:55+1:085m12-1184.466129mKRRatnagiri 415612, Maharashtra
21|--|SWVSawantwadi Road (2)  06:30 05:20+1:2306:32 05:22+1:232m12-1023.93540mKRDist. Sindhudurg, Maharashtra
22|--|MAOMadgaon Junction (3)  09:20 07:30+3209:30 07:40+4510m12-949.56411mKRMadgaon 403601, Goa
23|--|CNOCanacona (1)  10:00 08:12+1:2010:02 08:14+1:262m12-915.34529mKRPh:-0832-2643644., Goa
24|--|KAWRKarwar (2)X  10:35 08:50+1:2510:37 08:52+1:262m--2-888.27214mKRKarwar, Karnataka
25|--|KTKumta (2)X  11:40 09:38+1:1111:42 09:40+1:142m--2-833.16320mKRKumta - 581362, Karnataka
26|--|MRDWMurdeshwar (2)  12:22 10:18+1:1512:24 10:20+1:152m--2-793.15028mKRMurudeshwara - 581350, Karnataka
27|--|BYNRByndoor Mookambika Road (1)  12:56 10:56+1:1612:58 10:58+1:162m12-763.27710mKRUdupi Dist. 576214, Karnataka
28|--|KUDAKundapura (2)  13:26 11:24+1:3213:28 11:26+1:322m12-729.66913mKRKundapura - 576211, Karnataka
29|--|UDUdupi (2)  14:02 11:54+1:2914:04 11:56+1:302m12-697.65718mKRUdupi, Karnataka
30|--|SLSurathkal (1)  14:52 12:40+1:2414:54 12:42+1:262m12-655.82122mKRSurathkal, Karnataka
31|--|MAJNMangalore Junction (3)  16:00 13:40+1:0816:10 13:50+1:1210m222-635.27724mSRMangalore 575001, Karnataka
32%==%KGQKasaragod (3)  17:08 14:28+1:0217:10 14:30+1:032m--2-586.26618mSRTel: 04994 220800, Kerala
33%==%PAYPayyanur (3)  17:53 15:18+1:0817:55 15:20+1:102m--2-533.8880mSRKannur District, Kerala
34%==%KPQKannapuram (2)  18:10 15:33+1:1318:12 15:35+1:182m22-514.6299mSRKannur District, Kerala
35%==%CANKannur Main (4)  18:45 16:05+5518:50 16:10+575m32-500.19514mSRKannur Tel: 0497 2705555, Kerala
36%==%TLYThalassery (2)  19:08 16:23+1:1019:10 16:25+1:102m--2-479.4749mSRKannur, Kerala
37%==%BDJVadakara (2)  19:30 16:43+1:1019:32 16:45+1:102m12-457.37311mSRCalicut / Station Ph No : 0496-2524254, Kerala
38%==%QLDKoyilandy (3)X  19:48 17:03+1:1319:50 17:05+1:142m--2-435.44211mSRQuilandi, Kerala
39%==%CLTKozhikode Main (4)XO  20:25 17:40+4420:30 17:45+455m--2-411.14611mSRCalicut Tel: 0495 2701234, Kerala
40%==%FKFerok (2)X  20:43 17:58+4420:45 18:00+452m--2-401.16119mSRFeroke, Kerala
41%==%PGIParappangadi (2)X  20:58 18:15+4421:00 18:17+442m--2-385.96019mSRParappanangadi, Kerala
42%==%TIRTirur (3)X  21:18 18:33+3721:20 18:35+372m--2-369.8569mSRTel: 0494 2422240, Kerala
43%==%KTUKuttippuram (2)  21:38 18:51+3121:40 18:53+312m--2-354.87417mSRKuttippuram, Kerala
44%==%PTBPattambi (2)X  21:53 19:08+2421:55 19:10+242m--2-336.31521mSRPattambi, Kerala
45%==%SRRShoranur Junction (7)  22:50 19:55+923:00 20:05+1510m--2-324.85626mSRShoranur ph.no 0466-2222913, Kerala
46/==/TCRThrissur (4)X  23:30 20:40+4323:33 20:43+433m12-291.8706mSRThrissur Tel: 0487 2423150, Kerala
47/==/AWYAluva (3)  00:20 21:30+5500:22 21:32+552m12-237.23612mSRPh: 0484-2624141, Kerala
48/==/ERNErnakulam Town (North) (2)  00:50 22:00+5400:55 22:05+545m22-220.4589mSRTel: 0484 2395198, Kerala
49%==%KTYMKottayam (3)  02:00 23:07+5902:05 23:12+585m12-160.45915mSRTel: 0481 2563535, Kerala
50%==%TRVLTiruvalla (2)  02:30 23:38+5302:32 23:40+552m22-134.76827mSRPh: 0469-2601314, Kerala
51/==%CNGRChengannur (3)  02:41 23:48+1:0102:43 23:50+1:012m12-125.6676mSRPh: 0479-2452340, Kerala
52/==/KYJKayamkulam Junction (5) new halt!!X  00:08+1:0200:10+1:022m--3-105.44111mSRAlappuzha Ph;0479-2442042, Kerala
53/==/QLNKollam Junction (6)  03:55 01:10+5404:00 01:15+555m13-64.66916mSRKollam 0474-2746194, Kerala
54/==/TVPThiruvananthapuram Pettah (2)  04:48 02:09+004:50 02:11+02m13-2.4518mSRTrivandrum Ph: 04712470181, Kerala
55/==/TVCTrivandrum Central (5)»  05:20 02:40+2105:25 02:45+215m330.04712mSRThiruvananthapuram 695001, Kerala
56/--/NCJNagercoil Junction (4)•  06:45 04:15+18-23371.1-22mSRNagercoil-629002, Tamil Nadu
Scroll to Top
Scroll to Bottom